createdAt,value
2023-05-14T00:00:54.158Z,6.60
2023-05-14T00:01:54.139Z,6.30
2023-05-14T00:02:54.175Z,6.40
2023-05-14T00:03:54.293Z,6.10
2023-05-14T00:04:54.114Z,6.60
2023-05-14T00:05:54.101Z,5.90
2023-05-14T00:06:54.079Z,7.60
2023-05-14T00:07:54.066Z,7.80
2023-05-14T00:08:54.058Z,7.60
2023-05-14T00:09:54.060Z,8.40
2023-05-14T00:10:54.062Z,8.40
2023-05-14T00:11:54.030Z,7.50
2023-05-14T00:12:54.023Z,8.00
2023-05-14T00:13:54.014Z,8.20
2023-05-14T00:14:54.021Z,7.60
2023-05-14T00:15:54.030Z,8.60
2023-05-14T00:16:53.984Z,9.60
2023-05-14T00:17:54.010Z,9.20
2023-05-14T00:18:54.026Z,8.70
2023-05-14T00:19:53.956Z,9.00
2023-05-14T00:20:53.932Z,9.90
2023-05-14T00:21:53.919Z,8.30
2023-05-14T00:22:53.918Z,8.40
2023-05-14T00:23:53.902Z,9.10
2023-05-14T00:24:53.902Z,8.60
2023-05-14T00:25:53.886Z,8.90
2023-05-14T00:26:53.875Z,8.30
2023-05-14T00:27:53.866Z,8.20
2023-05-14T00:28:53.852Z,8.10
2023-05-14T00:29:53.856Z,7.50
2023-05-14T00:30:53.860Z,7.40
2023-05-14T00:31:53.891Z,7.20
2023-05-14T00:32:53.812Z,6.90
2023-05-14T00:33:53.817Z,6.80
2023-05-14T00:34:53.791Z,6.90
2023-05-14T00:35:53.771Z,7.00
2023-05-14T00:36:53.768Z,7.40
2023-05-14T00:37:53.757Z,7.50
2023-05-14T00:38:53.757Z,7.80
2023-05-14T00:39:53.731Z,7.30
2023-05-14T00:40:53.727Z,8.30
2023-05-14T00:41:53.733Z,8.10
2023-05-14T00:42:53.711Z,7.50
2023-05-14T00:43:53.698Z,8.10
2023-05-14T00:44:53.682Z,8.30
2023-05-14T00:45:53.697Z,8.00
2023-05-14T00:46:53.696Z,8.80
2023-05-14T00:47:53.730Z,7.60
2023-05-14T00:48:53.658Z,8.10
2023-05-14T00:49:53.639Z,8.00
2023-05-14T00:50:53.619Z,7.90
2023-05-14T00:51:53.598Z,8.40
2023-05-14T00:52:53.610Z,8.10
2023-05-14T00:53:53.574Z,7.90
2023-05-14T00:54:53.568Z,9.30
2023-05-14T00:55:53.562Z,9.20
2023-05-14T00:56:53.545Z,9.10
2023-05-14T00:57:53.553Z,8.20
2023-05-14T00:58:53.524Z,7.50
2023-05-14T00:59:53.615Z,7.90
2023-05-14T01:00:53.541Z,8.70
2023-05-14T01:01:53.500Z,9.30
2023-05-14T01:02:53.594Z,8.10
2023-05-14T01:03:53.626Z,8.40
2023-05-14T01:04:53.460Z,7.60
2023-05-14T01:05:53.447Z,7.50
2023-05-14T01:06:53.449Z,7.90
2023-05-14T01:07:53.435Z,6.70
2023-05-14T01:08:53.429Z,6.50
2023-05-14T01:09:53.405Z,7.40
2023-05-14T01:10:53.392Z,6.80
2023-05-14T01:11:53.393Z,7.60
2023-05-14T01:12:53.375Z,7.10
2023-05-14T01:13:53.359Z,6.40
2023-05-14T01:14:53.345Z,5.70
2023-05-14T01:15:53.332Z,5.50
2023-05-14T01:16:53.364Z,5.10
2023-05-14T01:17:53.351Z,5.20
2023-05-14T01:18:53.345Z,4.80
2023-05-14T01:19:53.300Z,5.20
2023-05-14T01:20:53.300Z,4.60
2023-05-14T01:21:53.289Z,5.00
2023-05-14T01:22:53.261Z,5.30
2023-05-14T01:23:53.253Z,5.30
2023-05-14T01:24:53.249Z,4.90
2023-05-14T01:25:53.248Z,4.30
2023-05-14T01:26:53.227Z,4.70
2023-05-14T01:27:53.217Z,4.10
2023-05-14T01:28:53.192Z,4.50
2023-05-14T01:29:53.183Z,4.10
2023-05-14T01:30:53.196Z,5.20
2023-05-14T01:31:53.166Z,5.00
2023-05-14T01:32:53.190Z,4.40
2023-05-14T01:33:53.138Z,4.90
2023-05-14T01:34:53.144Z,5.00
2023-05-14T01:35:53.118Z,5.40
2023-05-14T01:36:53.108Z,5.20
2023-05-14T01:37:53.090Z,4.30
2023-05-14T01:38:53.106Z,5.40
2023-05-14T01:39:53.089Z,4.60
2023-05-14T01:40:53.093Z,5.10
2023-05-14T01:41:53.044Z,5.10
2023-05-14T01:42:53.101Z,5.60
2023-05-14T01:43:53.020Z,5.70
2023-05-14T01:44:53.022Z,6.20
2023-05-14T01:45:53.038Z,6.50
2023-05-14T01:46:52.999Z,6.60
2023-05-14T01:47:53.015Z,6.50
2023-05-14T01:48:52.981Z,6.30
2023-05-14T01:49:52.980Z,6.10
2023-05-14T01:50:52.948Z,6.50
2023-05-14T01:51:52.940Z,6.00
2023-05-14T01:52:52.927Z,6.70
2023-05-14T01:53:52.937Z,7.20
2023-05-14T01:54:52.915Z,6.80
2023-05-14T01:55:52.900Z,7.60
2023-05-14T01:56:52.882Z,6.70
2023-05-14T01:57:52.875Z,6.60
2023-05-14T01:58:52.878Z,6.80
2023-05-14T01:59:52.848Z,6.40
2023-05-14T02:00:52.834Z,7.50
2023-05-14T02:01:52.909Z,7.80
2023-05-14T02:02:52.829Z,7.20
2023-05-14T02:03:52.870Z,7.30
2023-05-14T02:04:52.789Z,8.00
2023-05-14T02:05:52.799Z,7.30
2023-05-14T02:06:52.773Z,7.20
2023-05-14T02:07:52.794Z,8.10
2023-05-14T02:08:52.761Z,7.60
2023-05-14T02:09:52.740Z,7.00
2023-05-14T02:10:52.734Z,8.30
2023-05-14T02:11:52.725Z,7.50
2023-05-14T02:12:52.716Z,9.50
2023-05-14T02:13:52.703Z,9.40
2023-05-14T02:14:52.694Z,9.40
2023-05-14T02:15:52.715Z,10.00
2023-05-14T02:16:52.667Z,8.50
2023-05-14T02:17:52.718Z,9.30
2023-05-14T02:18:52.685Z,8.40
2023-05-14T02:19:52.636Z,7.60
2023-05-14T02:20:52.641Z,9.10
2023-05-14T02:21:52.630Z,8.20
2023-05-14T02:22:52.621Z,9.00
2023-05-14T02:23:52.591Z,8.10
2023-05-14T02:24:52.595Z,7.80
2023-05-14T02:25:52.564Z,8.00
2023-05-14T02:26:52.568Z,7.90
2023-05-14T02:27:52.547Z,8.70
2023-05-14T02:28:52.542Z,8.80
2023-05-14T02:29:52.524Z,8.40
2023-05-14T02:30:52.513Z,9.20
2023-05-14T02:31:52.552Z,8.50
2023-05-14T02:32:52.571Z,9.10
2023-05-14T02:33:52.486Z,7.80
2023-05-14T02:34:52.479Z,8.20
2023-05-14T02:35:52.468Z,8.60
2023-05-14T02:36:52.470Z,7.30
2023-05-14T02:37:52.443Z,8.70
2023-05-14T02:38:52.420Z,8.50
2023-05-14T02:39:52.424Z,7.50
2023-05-14T02:40:52.448Z,7.80
2023-05-14T02:41:52.407Z,9.60
2023-05-14T02:42:52.382Z,10.20
2023-05-14T02:43:52.370Z,10.30
2023-05-14T02:44:52.381Z,9.50
2023-05-14T02:45:52.371Z,9.70
2023-05-14T02:46:52.378Z,8.90
2023-05-14T02:47:52.387Z,8.80
2023-05-14T02:48:52.320Z,10.20
2023-05-14T02:49:52.317Z,10.80
2023-05-14T02:50:52.310Z,9.90
2023-05-14T02:51:52.284Z,10.10
2023-05-14T02:52:52.310Z,10.10
2023-05-14T02:53:52.274Z,9.10
2023-05-14T02:54:52.257Z,8.20
2023-05-14T02:55:52.258Z,9.90
2023-05-14T02:56:52.230Z,12.10
2023-05-14T02:57:52.222Z,8.50
2023-05-14T02:58:52.215Z,8.30
2023-05-14T02:59:52.195Z,8.10
2023-05-14T03:00:52.211Z,8.00
2023-05-14T03:01:52.208Z,8.10
2023-05-14T03:02:52.218Z,8.60
2023-05-14T03:03:52.153Z,8.50
2023-05-14T03:04:52.168Z,8.30
2023-05-14T03:05:52.176Z,8.20
2023-05-14T03:06:52.128Z,8.40
2023-05-14T03:07:52.114Z,9.60
2023-05-14T03:08:52.100Z,9.30
2023-05-14T03:09:52.122Z,8.50
2023-05-14T03:10:52.091Z,8.00
2023-05-14T03:11:52.070Z,8.70
2023-05-14T03:12:52.083Z,8.40
2023-05-14T03:13:52.052Z,8.60
2023-05-14T03:14:52.052Z,7.90
2023-05-14T03:15:52.039Z,6.90
2023-05-14T03:16:52.034Z,7.50
2023-05-14T03:17:52.057Z,8.10
2023-05-14T03:18:52.063Z,8.90
2023-05-14T03:19:51.997Z,8.30
2023-05-14T03:20:51.965Z,9.00
2023-05-14T03:21:51.964Z,8.30
2023-05-14T03:22:51.945Z,8.20
2023-05-14T03:23:51.945Z,8.10
2023-05-14T03:24:51.918Z,7.70
2023-05-14T03:25:51.917Z,8.20
2023-05-14T03:26:51.915Z,7.50
2023-05-14T03:27:51.892Z,7.20
2023-05-14T03:28:51.905Z,8.00
2023-05-14T03:29:51.873Z,7.60
2023-05-14T03:30:51.934Z,7.60
2023-05-14T03:31:51.850Z,7.90
2023-05-14T03:32:51.938Z,7.90
2023-05-14T03:33:51.846Z,8.30
2023-05-14T03:34:51.823Z,8.60
2023-05-14T03:35:51.850Z,8.00
2023-05-14T03:36:51.804Z,8.10
2023-05-14T03:37:51.824Z,7.20
2023-05-14T03:38:51.788Z,7.20
2023-05-14T03:39:51.766Z,7.10
2023-05-14T03:40:51.791Z,8.60
2023-05-14T03:41:51.746Z,7.70
2023-05-14T03:42:51.734Z,10.30
2023-05-14T03:43:51.716Z,9.30
2023-05-14T03:44:51.714Z,9.40
2023-05-14T03:45:51.703Z,9.60
2023-05-14T03:46:51.684Z,8.90
2023-05-14T03:47:51.782Z,9.50
2023-05-14T03:48:51.742Z,9.10
2023-05-14T03:49:51.672Z,9.60
2023-05-14T03:50:51.642Z,9.40
2023-05-14T03:51:51.669Z,8.90
2023-05-14T03:52:51.635Z,9.10
2023-05-14T03:53:51.644Z,9.40
2023-05-14T03:54:51.604Z,9.80
2023-05-14T03:55:51.585Z,9.60
2023-05-14T03:56:51.591Z,10.80
2023-05-14T03:57:51.577Z,10.60
2023-05-14T03:58:51.555Z,9.30
2023-05-14T03:59:51.543Z,9.20
2023-05-14T04:00:51.536Z,9.40
2023-05-14T04:01:51.538Z,9.40
2023-05-14T04:02:51.691Z,9.50
2023-05-14T04:03:51.648Z,9.20
2023-05-14T04:04:51.616Z,8.50
2023-05-14T04:05:51.480Z,8.30
2023-05-14T04:06:51.492Z,8.70
2023-05-14T04:07:51.458Z,9.10
2023-05-14T04:08:51.472Z,8.80
2023-05-14T04:09:51.441Z,9.60
2023-05-14T04:10:51.444Z,8.80
2023-05-14T04:11:51.434Z,9.70
2023-05-14T04:12:51.403Z,9.80
2023-05-14T04:13:51.394Z,10.00
2023-05-14T04:14:51.387Z,10.60
2023-05-14T04:15:51.500Z,9.40
2023-05-14T04:16:51.421Z,9.80
2023-05-14T04:17:51.387Z,10.00
2023-05-14T04:18:51.402Z,9.20
2023-05-14T04:19:51.400Z,8.50
2023-05-14T04:20:51.367Z,8.60
2023-05-14T04:21:51.299Z,9.60
2023-05-14T04:22:51.301Z,9.60
2023-05-14T04:23:51.282Z,10.30
2023-05-14T04:24:51.269Z,10.50
2023-05-14T04:25:51.374Z,10.70
2023-05-14T04:26:51.266Z,11.80
2023-05-14T04:27:51.251Z,12.00
2023-05-14T04:28:51.231Z,11.30
2023-05-14T04:29:51.230Z,10.70
2023-05-14T04:30:51.225Z,11.30
2023-05-14T04:31:51.259Z,11.40
2023-05-14T04:32:51.213Z,11.10
2023-05-14T04:33:51.176Z,11.30
2023-05-14T04:34:51.169Z,11.70
2023-05-14T04:35:51.141Z,10.40
2023-05-14T04:36:51.138Z,11.00
2023-05-14T04:37:51.132Z,10.80
2023-05-14T04:38:51.115Z,10.90
2023-05-14T04:39:51.116Z,10.80
2023-05-14T04:40:51.096Z,10.80
2023-05-14T04:41:51.084Z,10.20
2023-05-14T04:42:51.084Z,9.50
2023-05-14T04:43:51.063Z,9.80
2023-05-14T04:44:51.057Z,10.10
2023-05-14T04:45:51.085Z,10.30
2023-05-14T04:46:51.046Z,11.00
2023-05-14T04:47:51.083Z,10.10
2023-05-14T04:48:51.019Z,9.70
2023-05-14T04:49:51.001Z,9.70
2023-05-14T04:50:50.998Z,10.20
2023-05-14T04:51:50.976Z,9.00
2023-05-14T04:52:50.966Z,10.50
2023-05-14T04:53:50.970Z,9.90
2023-05-14T04:54:50.967Z,9.80
2023-05-14T04:55:50.940Z,9.80
2023-05-14T04:56:50.926Z,9.90
2023-05-14T04:57:50.901Z,10.40
2023-05-14T04:58:50.906Z,10.80
2023-05-14T04:59:50.885Z,10.90
2023-05-14T05:00:50.894Z,10.40
2023-05-14T05:01:50.866Z,9.80
2023-05-14T05:02:50.922Z,8.80
2023-05-14T05:03:50.899Z,9.60
2023-05-14T05:04:50.839Z,9.50
2023-05-14T05:05:50.820Z,9.40
2023-05-14T05:06:50.816Z,9.00
2023-05-14T05:07:50.822Z,9.00
2023-05-14T05:08:50.804Z,10.00
2023-05-14T05:09:50.783Z,10.00
2023-05-14T05:10:50.786Z,10.10
2023-05-14T05:11:50.760Z,10.30
2023-05-14T05:12:50.771Z,10.20
2023-05-14T05:13:50.753Z,10.20
2023-05-14T05:14:50.728Z,9.60
2023-05-14T05:15:50.737Z,10.70
2023-05-14T05:16:50.710Z,11.40
2023-05-14T05:17:50.741Z,11.20
2023-05-14T05:18:50.766Z,10.60
2023-05-14T05:19:50.673Z,10.60
2023-05-14T05:20:50.672Z,10.40
2023-05-14T05:21:50.671Z,9.80
2023-05-14T05:22:50.668Z,10.40
2023-05-14T05:23:50.637Z,9.90
2023-05-14T05:24:50.632Z,9.90
2023-05-14T05:25:50.620Z,9.30
2023-05-14T05:26:50.605Z,9.90
2023-05-14T05:27:50.603Z,10.00
2023-05-14T05:28:50.587Z,9.90
2023-05-14T05:29:50.583Z,9.10
2023-05-14T05:30:50.574Z,9.50
2023-05-14T05:31:50.615Z,9.50
2023-05-14T05:32:50.583Z,9.00
2023-05-14T05:33:50.531Z,10.40
2023-05-14T05:34:50.540Z,9.70
2023-05-14T05:35:50.515Z,10.10
2023-05-14T05:36:50.516Z,9.10
2023-05-14T05:37:50.507Z,9.30
2023-05-14T05:38:50.477Z,9.20
2023-05-14T05:39:50.471Z,9.60
2023-05-14T05:40:50.455Z,9.60
2023-05-14T05:41:50.454Z,9.10
2023-05-14T05:42:50.435Z,8.90
2023-05-14T05:43:50.415Z,9.50
2023-05-14T05:44:50.420Z,9.10
2023-05-14T05:45:50.398Z,9.00
2023-05-14T05:46:50.550Z,9.50
2023-05-14T05:47:50.424Z,9.50
2023-05-14T05:48:50.384Z,8.90
2023-05-14T05:49:50.352Z,9.80
2023-05-14T05:50:50.534Z,9.60
2023-05-14T05:51:50.344Z,10.40
2023-05-14T05:52:50.319Z,9.70
2023-05-14T05:54:44.311Z,9.00
2023-05-14T05:54:51.319Z,8.50
2023-05-14T05:55:50.305Z,8.60
2023-05-14T05:56:50.280Z,8.80
2023-05-14T05:57:50.271Z,8.30
2023-05-14T05:58:50.268Z,8.70
2023-05-14T05:59:50.248Z,8.30
2023-05-14T06:00:50.257Z,8.00
2023-05-14T06:01:50.260Z,8.40
2023-05-14T06:02:50.253Z,8.00
2023-05-14T06:03:50.215Z,8.10
2023-05-14T06:04:50.216Z,8.50
2023-05-14T06:05:50.222Z,8.30
2023-05-14T06:06:50.182Z,8.90
2023-05-14T06:07:50.167Z,9.10
2023-05-14T06:08:50.161Z,9.40
2023-05-14T06:09:50.153Z,8.50
2023-05-14T06:10:50.165Z,9.40
2023-05-14T06:11:50.129Z,8.50
2023-05-14T06:12:50.128Z,9.30
2023-05-14T06:13:50.103Z,9.00
2023-05-14T06:14:50.089Z,8.70
2023-05-14T06:15:50.087Z,9.40
2023-05-14T06:16:50.124Z,9.00
2023-05-14T06:17:50.094Z,9.50
2023-05-14T06:18:50.103Z,8.90
2023-05-14T06:19:50.056Z,8.80
2023-05-14T06:20:50.044Z,8.90
2023-05-14T06:21:50.038Z,7.70
2023-05-14T06:22:50.011Z,8.50
2023-05-14T06:23:50.005Z,8.50
2023-05-14T06:24:50.008Z,8.80
2023-05-14T06:25:50.770Z,8.60
2023-05-14T06:26:49.972Z,8.40
2023-05-14T06:27:49.974Z,8.20
2023-05-14T06:28:49.949Z,8.00
2023-05-14T06:29:49.946Z,7.70
2023-05-14T06:30:49.932Z,7.60
2023-05-14T06:31:49.959Z,7.90
2023-05-14T06:32:49.949Z,7.50
2023-05-14T06:33:49.909Z,7.60
2023-05-14T06:34:49.925Z,7.10
2023-05-14T06:35:49.878Z,7.70
2023-05-14T06:36:49.875Z,8.10
2023-05-14T06:37:49.847Z,7.50
2023-05-14T06:38:49.852Z,7.80
2023-05-14T06:39:49.870Z,7.30
2023-05-14T06:40:49.824Z,7.20
2023-05-14T06:41:49.809Z,7.50
2023-05-14T06:42:49.803Z,6.80
2023-05-14T06:43:49.806Z,7.20
2023-05-14T06:44:49.780Z,7.60
2023-05-14T06:45:49.773Z,7.00
2023-05-14T06:46:49.767Z,6.90
2023-05-14T06:47:49.902Z,7.00
2023-05-14T06:48:49.782Z,6.80
2023-05-14T06:49:49.729Z,6.90
2023-05-14T06:50:49.735Z,6.60
2023-05-14T06:51:49.711Z,7.60
2023-05-14T06:52:49.719Z,7.00
2023-05-14T06:53:49.694Z,6.70
2023-05-14T06:54:49.683Z,6.60
2023-05-14T06:55:49.668Z,6.50
2023-05-14T06:56:49.662Z,6.40
2023-05-14T06:57:49.654Z,5.80
2023-05-14T06:58:49.640Z,6.10
2023-05-14T06:59:49.630Z,5.60
2023-05-14T07:00:49.614Z,6.50
2023-05-14T07:01:49.677Z,6.00
2023-05-14T07:02:49.667Z,5.90
2023-05-14T07:03:49.638Z,6.30
2023-05-14T07:04:49.671Z,6.40
2023-05-14T07:05:49.565Z,5.80
2023-05-14T07:06:49.569Z,6.30
2023-05-14T07:07:49.554Z,5.80
2023-05-14T07:08:50.389Z,5.80
2023-05-14T07:09:49.529Z,5.20
2023-05-14T07:10:49.519Z,5.70
2023-05-14T07:11:49.512Z,5.70
2023-05-14T07:12:49.500Z,5.70
2023-05-14T07:13:49.488Z,5.40
2023-05-14T07:14:49.473Z,5.50
2023-05-14T07:15:49.462Z,5.30
2023-05-14T07:16:49.489Z,5.50
2023-05-14T07:17:49.545Z,4.80
2023-05-14T07:18:49.476Z,4.70
2023-05-14T07:19:49.420Z,5.20
2023-05-14T07:20:49.410Z,4.80
2023-05-14T07:21:49.410Z,4.80
2023-05-14T07:22:49.392Z,4.80
2023-05-14T07:23:49.385Z,4.50
2023-05-14T07:24:49.392Z,4.20
2023-05-14T07:25:49.368Z,4.20
2023-05-14T07:26:49.376Z,3.60
2023-05-14T07:27:49.345Z,4.20
2023-05-14T07:28:49.337Z,3.80
2023-05-14T07:29:49.316Z,4.20
2023-05-14T07:30:49.322Z,3.80
2023-05-14T07:31:49.328Z,4.10
2023-05-14T07:32:49.349Z,4.10
2023-05-14T07:33:49.276Z,4.00
2023-05-14T07:34:49.272Z,4.00
2023-05-14T07:35:49.274Z,3.50
2023-05-14T07:36:49.246Z,4.00
2023-05-14T07:37:49.234Z,3.70
2023-05-14T07:38:49.233Z,3.80
2023-05-14T07:39:49.232Z,3.50
2023-05-14T07:40:49.245Z,3.70
2023-05-14T07:41:49.195Z,3.90
2023-05-14T07:42:49.210Z,4.00
2023-05-14T07:43:49.175Z,3.90
2023-05-14T07:44:49.182Z,3.90
2023-05-14T07:45:49.157Z,4.40
2023-05-14T07:46:49.158Z,3.60
2023-05-14T07:47:49.200Z,3.70
2023-05-14T07:48:49.125Z,3.80
2023-05-14T07:49:49.129Z,3.60
2023-05-14T07:50:49.111Z,3.60
2023-05-14T07:51:49.085Z,4.10
2023-05-14T07:52:49.093Z,4.00
2023-05-14T07:53:49.085Z,3.60
2023-05-14T07:54:50.574Z,3.80
2023-05-14T07:55:49.067Z,3.70
2023-05-14T07:56:49.043Z,3.60
2023-05-14T07:57:49.038Z,3.70
2023-05-14T07:58:49.046Z,3.60
2023-05-14T07:59:49.025Z,3.90
2023-05-14T08:00:49.008Z,3.60
2023-05-14T08:01:49.022Z,4.00
2023-05-14T08:02:49.257Z,4.00
2023-05-14T08:03:49.128Z,4.00
2023-05-14T08:04:48.964Z,3.70
2023-05-14T08:05:48.964Z,4.20
2023-05-14T08:06:48.951Z,3.70
2023-05-14T08:07:48.942Z,3.60
2023-05-14T08:08:48.962Z,4.20
2023-05-14T08:09:48.921Z,4.00
2023-05-14T08:10:48.928Z,3.80
2023-05-14T08:11:48.897Z,4.30
2023-05-14T08:12:48.906Z,4.20
2023-05-14T08:13:48.892Z,4.30
2023-05-14T08:14:48.882Z,4.30
2023-05-14T08:15:48.866Z,4.20
2023-05-14T08:16:48.942Z,4.70
2023-05-14T08:17:48.901Z,4.30
2023-05-14T08:18:48.871Z,4.30
2023-05-14T08:19:48.830Z,4.00
2023-05-14T08:20:48.811Z,3.90
2023-05-14T08:21:48.808Z,3.50
2023-05-14T08:22:48.804Z,3.60
2023-05-14T08:23:48.787Z,3.70
2023-05-14T08:24:48.856Z,3.50
2023-05-14T08:25:48.785Z,3.90
2023-05-14T08:26:48.756Z,3.50
2023-05-14T08:27:48.757Z,3.80
2023-05-14T08:28:48.731Z,3.80
2023-05-14T08:29:48.723Z,3.80
2023-05-14T08:30:48.750Z,3.60
2023-05-14T08:31:48.718Z,3.90
2023-05-14T08:32:48.709Z,3.60
2023-05-14T08:33:48.684Z,3.40
2023-05-14T08:34:48.668Z,3.40
2023-05-14T08:35:48.664Z,3.30
2023-05-14T08:36:48.658Z,3.70
2023-05-14T08:37:48.649Z,3.60
2023-05-14T08:38:48.630Z,3.60
2023-05-14T08:39:48.657Z,3.20
2023-05-14T08:40:48.609Z,3.60
2023-05-14T08:41:48.756Z,3.70
2023-05-14T08:42:48.597Z,3.40
2023-05-14T08:43:48.580Z,3.40
2023-05-14T08:44:48.575Z,3.60
2023-05-14T08:45:48.570Z,3.50
2023-05-14T08:46:48.556Z,3.30
2023-05-14T08:47:48.629Z,3.20
2023-05-14T08:48:48.588Z,2.90
2023-05-14T08:49:48.522Z,3.10
2023-05-14T08:50:48.514Z,3.00
2023-05-14T08:51:48.567Z,3.00
2023-05-14T08:52:48.490Z,3.10
2023-05-14T08:53:48.483Z,3.40
2023-05-14T08:54:48.463Z,3.50
2023-05-14T08:55:48.472Z,3.20
2023-05-14T08:56:50.496Z,3.20
2023-05-14T08:57:48.449Z,3.10
2023-05-14T08:58:48.429Z,3.50
2023-05-14T08:59:48.449Z,3.30
2023-05-14T09:00:48.429Z,3.60
2023-05-14T09:01:48.462Z,2.90
2023-05-14T09:02:48.407Z,3.20
2023-05-14T09:03:48.440Z,3.40
2023-05-14T09:04:48.378Z,3.20
2023-05-14T09:05:48.365Z,3.60
2023-05-14T09:06:48.347Z,3.20
2023-05-14T09:07:48.346Z,3.30
2023-05-14T09:08:48.332Z,2.80
2023-05-14T09:09:48.334Z,3.20
2023-05-14T09:10:48.314Z,3.10
2023-05-14T09:11:48.306Z,3.20
2023-05-14T09:12:48.293Z,3.10
2023-05-14T09:13:48.283Z,3.20
2023-05-14T09:14:48.282Z,3.40
2023-05-14T09:15:48.266Z,3.20
2023-05-14T09:16:48.326Z,3.20
2023-05-14T09:17:48.290Z,3.00
2023-05-14T09:18:48.477Z,2.80
2023-05-14T09:19:48.237Z,3.20
2023-05-14T09:20:48.210Z,3.00
2023-05-14T09:21:48.206Z,3.00
2023-05-14T09:22:48.188Z,2.90
2023-05-14T09:23:48.191Z,3.40
2023-05-14T09:24:48.164Z,3.00
2023-05-14T09:25:48.153Z,3.10
2023-05-14T09:26:48.144Z,3.20
2023-05-14T09:27:48.136Z,3.00
2023-05-14T09:28:48.137Z,2.90
2023-05-14T09:29:48.123Z,2.90
2023-05-14T09:30:48.101Z,3.20
2023-05-14T09:31:48.213Z,2.80
2023-05-14T09:32:48.103Z,2.90
2023-05-14T09:33:48.085Z,3.00
2023-05-14T09:34:48.065Z,2.80
2023-05-14T09:35:48.057Z,3.30
2023-05-14T09:36:48.041Z,2.80
2023-05-14T09:37:48.037Z,3.00
2023-05-14T09:38:48.033Z,2.90
2023-05-14T09:39:48.019Z,2.80
2023-05-14T09:40:48.005Z,3.10
2023-05-14T09:41:47.997Z,2.90
2023-05-14T09:42:47.984Z,3.20
2023-05-14T09:43:47.985Z,3.10
2023-05-14T09:44:47.988Z,2.90
2023-05-14T09:45:47.956Z,2.90
2023-05-14T09:46:47.975Z,3.00
2023-05-14T09:47:48.032Z,2.60
2023-05-14T09:48:47.939Z,3.10
2023-05-14T09:49:47.908Z,3.00
2023-05-14T09:50:47.909Z,3.40
2023-05-14T09:51:47.890Z,3.00
2023-05-14T09:52:47.874Z,3.10
2023-05-14T09:53:47.880Z,3.20
2023-05-14T09:54:47.855Z,3.10
2023-05-14T09:55:47.848Z,3.10
2023-05-14T09:56:47.835Z,2.80
2023-05-14T09:57:47.825Z,2.80
2023-05-14T09:58:47.825Z,2.60
2023-05-14T09:59:47.805Z,3.00
2023-05-14T10:00:47.844Z,3.20
2023-05-14T10:01:47.788Z,2.90
2023-05-14T10:02:47.812Z,2.80
2023-05-14T10:03:47.784Z,3.10
2023-05-14T10:04:47.785Z,3.00
2023-05-14T10:05:47.744Z,2.80
2023-05-14T10:06:47.738Z,2.40
2023-05-14T10:07:47.742Z,2.90
2023-05-14T10:08:47.719Z,2.70
2023-05-14T10:09:47.713Z,2.70
2023-05-14T10:10:47.692Z,2.80
2023-05-14T10:11:47.684Z,3.00
2023-05-14T10:12:47.679Z,2.60
2023-05-14T10:13:47.663Z,2.60
2023-05-14T10:14:47.766Z,2.60
2023-05-14T10:15:47.647Z,2.90
2023-05-14T10:16:47.666Z,3.00
2023-05-14T10:17:47.653Z,2.50
2023-05-14T10:18:47.664Z,3.00
2023-05-14T10:19:47.606Z,2.80
2023-05-14T10:20:47.587Z,2.80
2023-05-14T10:21:47.587Z,2.70
2023-05-14T10:22:47.593Z,3.10
2023-05-14T10:23:47.570Z,2.60
2023-05-14T10:24:47.552Z,2.80
2023-05-14T10:25:47.541Z,2.90
2023-05-14T10:26:47.538Z,2.60
2023-05-14T10:27:47.519Z,2.70
2023-05-14T10:28:47.509Z,2.60
2023-05-14T10:29:47.507Z,2.70
2023-05-14T10:30:47.544Z,2.80
2023-05-14T10:31:47.711Z,3.10
2023-05-14T10:32:47.494Z,2.80
2023-05-14T10:33:47.467Z,2.40
2023-05-14T10:34:47.445Z,2.90
2023-05-14T10:35:47.438Z,2.90
2023-05-14T10:36:47.463Z,2.90
2023-05-14T10:37:47.421Z,3.10
2023-05-14T10:38:47.443Z,2.90
2023-05-14T10:39:47.406Z,2.50
2023-05-14T10:40:47.394Z,2.60
2023-05-14T10:41:47.388Z,2.60
2023-05-14T10:42:47.383Z,2.70
2023-05-14T10:43:47.344Z,2.50
2023-05-14T10:44:47.332Z,2.80
2023-05-14T10:45:47.343Z,2.80
2023-05-14T10:46:47.333Z,2.70
2023-05-14T10:47:47.362Z,2.70
2023-05-14T10:48:47.287Z,2.70
2023-05-14T10:49:47.285Z,2.40
2023-05-14T10:50:47.327Z,2.70
2023-05-14T10:51:47.270Z,2.50
2023-05-14T10:52:47.247Z,2.70
2023-05-14T10:53:47.237Z,2.60
2023-05-14T10:54:47.241Z,2.50
2023-05-14T10:55:47.227Z,2.50
2023-05-14T10:56:47.205Z,2.70
2023-05-14T10:57:47.216Z,2.70
2023-05-14T10:58:47.192Z,2.40
2023-05-14T10:59:47.195Z,2.40
2023-05-14T11:00:47.185Z,2.30
2023-05-14T11:01:47.168Z,2.30
2023-05-14T11:02:47.295Z,2.50
2023-05-14T11:03:47.258Z,2.20
2023-05-14T11:04:47.150Z,2.20
2023-05-14T11:05:47.109Z,2.30
2023-05-14T11:06:47.116Z,2.70
2023-05-14T11:07:47.102Z,2.60
2023-05-14T11:08:47.081Z,2.40
2023-05-14T11:09:47.095Z,2.30
2023-05-14T11:10:47.096Z,2.20
2023-05-14T11:11:47.046Z,2.20
2023-05-14T11:12:47.034Z,2.50
2023-05-14T11:13:47.042Z,2.10
2023-05-14T11:14:47.032Z,2.20
2023-05-14T11:15:47.010Z,2.40
2023-05-14T11:16:47.040Z,2.40
2023-05-14T11:17:47.047Z,2.20
2023-05-14T11:18:47.050Z,2.20
2023-05-14T11:19:47.929Z,2.30
2023-05-14T11:20:46.954Z,2.20
2023-05-14T11:21:47.041Z,2.40
2023-05-14T11:22:46.948Z,1.90
2023-05-14T11:23:46.946Z,2.30
2023-05-14T11:24:46.919Z,2.30
2023-05-14T11:25:46.920Z,2.40
2023-05-14T11:26:46.889Z,2.20
2023-05-14T11:27:46.920Z,2.30
2023-05-14T11:28:46.878Z,2.40
2023-05-14T11:29:46.854Z,2.40
2023-05-14T11:30:46.841Z,2.10
2023-05-14T11:31:46.874Z,2.10
2023-05-14T11:32:46.892Z,2.20
2023-05-14T11:33:46.811Z,2.20
2023-05-14T11:34:46.818Z,2.10
2023-05-14T11:35:46.790Z,2.20
2023-05-14T11:36:46.775Z,2.20
2023-05-14T11:37:46.779Z,2.50
2023-05-14T11:38:46.764Z,2.30
2023-05-14T11:39:46.749Z,2.10
2023-05-14T11:40:46.733Z,2.10
2023-05-14T11:41:46.736Z,2.00
2023-05-14T11:42:46.728Z,2.40
2023-05-14T11:43:46.710Z,2.10
2023-05-14T11:44:46.690Z,2.20
2023-05-14T11:45:46.708Z,2.30
2023-05-14T11:46:46.678Z,2.30
2023-05-14T11:47:46.806Z,1.80
2023-05-14T11:48:46.655Z,1.90
2023-05-14T11:49:46.640Z,1.90
2023-05-14T11:50:46.633Z,2.40
2023-05-14T11:51:46.645Z,2.30
2023-05-14T11:52:46.615Z,2.60
2023-05-14T11:53:46.609Z,2.50
2023-05-14T11:54:46.689Z,2.30
2023-05-14T11:55:46.588Z,2.50
2023-05-14T11:56:46.578Z,2.20
2023-05-14T11:57:46.598Z,2.30
2023-05-14T11:58:46.547Z,2.30
2023-05-14T11:59:46.536Z,2.40
2023-05-14T12:00:46.551Z,2.10
2023-05-14T12:01:46.853Z,2.20
2023-05-14T12:02:47.783Z,2.30
2023-05-14T12:03:47.794Z,2.10
2023-05-14T12:04:47.722Z,2.20
2023-05-14T12:05:47.618Z,2.00
2023-05-14T12:06:47.621Z,2.00
2023-05-14T12:07:47.599Z,2.10
2023-05-14T12:08:47.588Z,2.30
2023-05-14T12:09:47.641Z,2.40
2023-05-14T12:10:48.118Z,2.30
2023-05-14T12:11:47.570Z,2.30
2023-05-14T12:12:47.531Z,2.50
2023-05-14T12:13:47.540Z,2.50
2023-05-14T12:14:47.536Z,2.70
2023-05-14T12:15:47.525Z,2.30
2023-05-14T12:16:47.535Z,2.30
2023-05-14T12:17:47.502Z,2.40
2023-05-14T12:18:47.511Z,1.90
2023-05-14T12:19:47.505Z,2.30
2023-05-14T12:20:47.515Z,2.20
2023-05-14T12:21:47.453Z,2.50
2023-05-14T12:22:47.436Z,2.20
2023-05-14T12:23:47.432Z,2.10
2023-05-14T12:24:47.447Z,2.30
2023-05-14T12:25:47.420Z,2.20
2023-05-14T12:26:47.441Z,2.20
2023-05-14T12:27:47.406Z,2.00
2023-05-14T12:28:47.404Z,2.00
2023-05-14T12:29:47.377Z,2.20
2023-05-14T12:30:47.367Z,2.10
2023-05-14T12:31:47.416Z,2.30
2023-05-14T12:32:47.363Z,2.20
2023-05-14T12:33:47.369Z,2.40
2023-05-14T12:34:47.328Z,2.30
2023-05-14T12:35:47.318Z,2.50
2023-05-14T12:36:47.303Z,2.20
2023-05-14T12:37:47.326Z,2.50
2023-05-14T12:38:47.294Z,2.50
2023-05-14T12:39:47.277Z,2.50
2023-05-14T12:40:47.260Z,2.30
2023-05-14T12:41:47.255Z,2.10
2023-05-14T12:42:47.261Z,2.30
2023-05-14T12:43:47.269Z,2.30
2023-05-14T12:44:47.240Z,2.10
2023-05-14T12:45:47.215Z,2.50
2023-05-14T12:46:47.254Z,2.20
2023-05-14T12:47:47.229Z,2.50
2023-05-14T12:48:47.195Z,2.20
2023-05-14T12:49:47.154Z,2.10
2023-05-14T12:50:47.184Z,2.50
2023-05-14T12:51:47.165Z,1.90
2023-05-14T12:52:47.183Z,2.00
2023-05-14T12:53:47.159Z,2.00
2023-05-14T12:54:47.133Z,2.30
2023-05-14T12:55:47.126Z,2.10
2023-05-14T12:56:47.111Z,2.40
2023-05-14T12:57:47.110Z,2.20
2023-05-14T12:58:47.103Z,2.00
2023-05-14T12:59:47.090Z,2.70
2023-05-14T13:00:47.108Z,2.20
2023-05-14T13:01:47.066Z,2.20
2023-05-14T13:02:47.093Z,2.90
2023-05-14T13:03:47.126Z,2.90
2023-05-14T13:04:47.048Z,3.10
2023-05-14T13:05:47.023Z,3.10
2023-05-14T13:06:47.024Z,2.80
2023-05-14T13:07:47.021Z,3.10
2023-05-14T13:08:47.018Z,3.00
2023-05-14T13:09:46.984Z,3.20
2023-05-14T13:10:46.991Z,3.10
2023-05-14T13:11:47.000Z,2.80
2023-05-14T13:12:46.970Z,2.90
2023-05-14T13:13:46.943Z,2.90
2023-05-14T13:14:46.953Z,3.00
2023-05-14T13:15:46.945Z,2.90
2023-05-14T13:16:47.034Z,2.90